DK-0021 weather

Gesten Glider Field
Denmark

Public forecast

Using degrees Celsius for public forecast. Weather courtesy of forecast.io.

Closest aviation weather report (METAR) to Gesten Glider Field

Closest report is Kolding Vamdrup Airfield, 8.4 nm (15.5 km) SE. Retrieved 2019/10/19 03:20 UTC (10 minutes ago):

EKVD 190320Z AUTO 20011KT //// ///////// 11/09 Q1002

Closest aviation forecast (TAF) to Gesten Glider Field

Closest forecast is Billund Airport, 11.4 nm (21.2 km) N. Retrieved 2019-10-19 00:30 UTC (3 hours ago):

TAF EKBI 182302Z 1900/1924 21012KT 9999 BKN018 TEMPO 1900/1909 4000 SHRA BKN012 SCT020CB TEMPO 1909/1918 BKN012 SCT020TCU BECMG 1915/1918 15005KT TEMPO 1918/1924 2000 BR SCT020CB